createdAt,value
2022-12-18T00:01:21.588Z,-4.80
2022-12-18T00:03:49.067Z,-5.80
2022-12-18T00:06:16.942Z,-5.80
2022-12-18T00:08:45.092Z,-5.80
2022-12-18T00:11:15.039Z,-5.80
2022-12-18T00:13:42.704Z,-5.80
2022-12-18T00:16:12.818Z,-5.80
2022-12-18T00:18:40.397Z,-5.70
2022-12-18T00:21:09.693Z,-5.70
2022-12-18T00:23:38.444Z,-5.70
2022-12-18T00:26:17.332Z,-5.70
2022-12-18T00:28:45.581Z,-5.70
2022-12-18T00:31:15.093Z,-5.70
2022-12-18T00:33:42.407Z,-5.70
2022-12-18T00:36:13.113Z,-5.90
2022-12-18T00:38:40.957Z,-5.90
2022-12-18T00:41:09.704Z,-5.90
2022-12-18T00:43:37.996Z,-6.00
2022-12-18T00:46:05.876Z,-6.00
2022-12-18T00:48:33.385Z,-6.00
2022-12-18T00:51:00.269Z,-6.10
2022-12-18T00:53:27.201Z,-6.10
2022-12-18T00:55:56.532Z,-6.10
2022-12-18T00:58:23.389Z,-6.10
2022-12-18T01:00:50.388Z,-6.10
2022-12-18T01:03:17.344Z,-6.10
2022-12-18T01:05:44.339Z,-6.20
2022-12-18T01:08:11.187Z,-6.20
2022-12-18T01:10:41.186Z,-6.20
2022-12-18T01:13:08.051Z,-6.10
2022-12-18T01:15:34.925Z,-6.30
2022-12-18T01:18:01.776Z,-6.30
2022-12-18T01:20:29.288Z,-6.30
2022-12-18T01:22:56.141Z,-6.30
2022-12-18T01:25:23.052Z,-6.40
2022-12-18T01:27:49.912Z,-6.40
2022-12-18T01:30:16.801Z,-6.40
2022-12-18T01:32:43.641Z,-6.50
2022-12-18T01:35:10.556Z,-6.50
2022-12-18T01:37:37.433Z,-6.50
2022-12-18T01:40:05.071Z,-6.50
2022-12-18T01:42:31.946Z,-6.60
2022-12-18T01:45:30.075Z,-6.60
2022-12-18T01:48:04.133Z,-6.70
2022-12-18T01:50:35.497Z,-6.70
2022-12-18T01:53:18.816Z,-4.40
2022-12-18T01:56:04.573Z,-6.80
2022-12-18T01:59:04.990Z,-6.90
2022-12-18T02:01:33.491Z,-6.90
2022-12-18T02:04:36.297Z,-7.00
2022-12-18T02:07:23.830Z,-7.00
2022-12-18T02:10:00.480Z,-7.00
2022-12-18T02:13:02.018Z,-7.00
2022-12-18T02:15:40.255Z,-7.10
2022-12-18T02:18:16.523Z,-7.10
2022-12-18T02:20:57.052Z,-7.10
2022-12-18T02:23:42.689Z,-7.10
2022-12-18T02:26:21.483Z,-7.20
2022-12-18T02:29:16.905Z,-6.20
2022-12-18T02:31:50.995Z,-7.20
2022-12-18T02:34:19.920Z,-7.30
2022-12-18T02:36:49.209Z,-7.30
2022-12-18T02:39:18.917Z,-7.20
2022-12-18T02:41:46.073Z,-7.30
2022-12-18T02:44:14.721Z,-7.30
2022-12-18T02:46:47.510Z,-7.30
2022-12-18T02:49:30.993Z,-7.30
2022-12-18T02:52:21.808Z,-7.30
2022-12-18T02:55:06.560Z,-7.30
2022-12-18T02:57:51.164Z,-7.20
2022-12-18T03:00:32.835Z,-7.20
2022-12-18T03:03:20.047Z,-7.30
2022-12-18T03:05:51.336Z,-7.30
2022-12-18T03:08:35.144Z,-7.30
2022-12-18T03:11:05.847Z,-7.20
2022-12-18T03:13:48.507Z,-7.20
2022-12-18T03:16:28.608Z,-7.20
2022-12-18T03:19:02.726Z,-7.20
2022-12-18T03:21:35.496Z,-7.10
2022-12-18T03:24:06.474Z,-7.10
2022-12-18T03:26:36.325Z,-7.10
2022-12-18T03:29:13.749Z,-7.10
2022-12-18T03:31:44.072Z,-7.10
2022-12-18T03:34:17.192Z,-7.10
2022-12-18T03:36:44.525Z,-7.10
2022-12-18T03:39:11.385Z,-7.20
2022-12-18T03:42:12.623Z,-7.20
2022-12-18T03:44:51.766Z,-7.20
2022-12-18T03:47:40.533Z,-7.20
2022-12-18T03:50:12.763Z,-7.20
2022-12-18T03:53:03.394Z,-7.20
2022-12-18T03:55:34.497Z,-7.20
2022-12-18T03:58:04.792Z,-7.20
2022-12-18T04:00:32.951Z,-7.30
2022-12-18T04:03:03.042Z,-7.30
2022-12-18T04:05:30.975Z,-7.40
2022-12-18T04:07:58.359Z,-7.40
2022-12-18T04:10:25.264Z,-7.40
2022-12-18T04:12:52.169Z,-7.40
2022-12-18T04:15:19.169Z,-7.40
2022-12-18T04:17:50.075Z,-7.40
2022-12-18T04:20:17.881Z,-7.50
2022-12-18T04:22:44.827Z,-7.50
2022-12-18T04:25:12.779Z,-7.40
2022-12-18T04:27:39.721Z,-7.40
2022-12-18T04:30:07.356Z,-7.40
2022-12-18T04:32:35.846Z,-7.40
2022-12-18T04:35:05.216Z,-7.40
2022-12-18T04:37:32.083Z,-7.40
2022-12-18T04:39:59.047Z,-7.20
2022-12-18T04:42:25.894Z,-7.30
2022-12-18T04:44:52.778Z,-7.30
2022-12-18T04:47:19.661Z,-7.30
2022-12-18T04:49:46.492Z,-7.30
2022-12-18T04:52:13.460Z,-7.30
2022-12-18T04:54:40.323Z,-7.30
2022-12-18T04:57:07.185Z,-7.30
2022-12-18T04:59:34.024Z,-7.40
2022-12-18T05:02:01.032Z,-7.50
2022-12-18T05:04:28.020Z,-7.50
2022-12-18T05:06:54.948Z,-7.60
2022-12-18T05:09:21.905Z,-7.50
2022-12-18T05:11:48.776Z,-7.60
2022-12-18T05:14:15.685Z,-7.60
2022-12-18T05:16:42.680Z,-7.60
2022-12-18T05:19:09.771Z,-7.60
2022-12-18T05:21:36.650Z,-7.60
2022-12-18T05:24:03.787Z,-7.60
2022-12-18T05:26:31.189Z,-7.60
2022-12-18T05:28:58.097Z,-7.60
2022-12-18T05:31:25.008Z,-7.70
2022-12-18T05:33:51.946Z,-7.70
2022-12-18T05:36:18.870Z,-7.70
2022-12-18T05:38:45.769Z,-7.70
2022-12-18T05:41:12.728Z,-7.80
2022-12-18T05:43:42.256Z,-7.80
2022-12-18T05:46:16.652Z,-7.80
2022-12-18T05:48:44.544Z,-7.90
2022-12-18T05:51:13.757Z,-7.90
2022-12-18T05:53:40.937Z,-7.90
2022-12-18T05:56:13.846Z,-8.00
2022-12-18T05:58:40.904Z,-8.00
2022-12-18T06:01:19.826Z,-8.00
2022-12-18T06:03:47.322Z,-8.00
2022-12-18T06:06:23.767Z,-7.90
2022-12-18T06:08:51.605Z,-8.00
2022-12-18T06:11:22.249Z,-8.00
2022-12-18T06:13:57.840Z,-8.00
2022-12-18T06:16:25.694Z,-8.10
2022-12-18T06:18:52.638Z,-8.10
2022-12-18T06:21:19.942Z,-8.10
2022-12-18T06:23:46.851Z,-8.10
2022-12-18T06:26:15.099Z,-8.20
2022-12-18T06:28:42.672Z,-8.20
2022-12-18T06:31:10.191Z,-8.20
2022-12-18T06:33:38.441Z,-8.20
2022-12-18T06:36:12.115Z,-8.30
2022-12-18T06:38:42.159Z,-8.30
2022-12-18T06:41:13.442Z,-8.30
2022-12-18T06:43:40.660Z,-8.40
2022-12-18T06:46:07.810Z,-8.40
2022-12-18T06:48:34.831Z,-8.40
2022-12-18T06:51:02.301Z,-8.40
2022-12-18T06:53:29.632Z,-8.40
2022-12-18T06:56:10.288Z,-8.40
2022-12-18T06:58:38.547Z,-8.40
2022-12-18T07:01:08.175Z,-8.40
2022-12-18T07:03:35.537Z,-8.40
2022-12-18T07:06:02.703Z,-8.40
2022-12-18T07:08:31.186Z,-8.40
2022-12-18T07:10:58.142Z,-8.40
2022-12-18T07:13:25.031Z,-8.50
2022-12-18T07:15:51.907Z,-8.50
2022-12-18T07:18:18.772Z,-8.50
2022-12-18T07:20:46.254Z,-8.50
2022-12-18T07:23:14.700Z,-8.40
2022-12-18T07:25:41.818Z,-8.50
2022-12-18T07:28:11.669Z,-8.50
2022-12-18T07:30:42.560Z,-8.50
2022-12-18T07:33:09.490Z,-8.50
2022-12-18T07:35:39.215Z,-8.40
2022-12-18T07:38:08.197Z,-8.50
2022-12-18T07:40:35.074Z,-8.50
2022-12-18T07:43:04.314Z,-8.40
2022-12-18T07:45:31.228Z,-8.50
2022-12-18T07:47:58.094Z,-8.40
2022-12-18T07:50:25.112Z,-8.40
2022-12-18T07:52:51.964Z,-8.40
2022-12-18T07:55:18.827Z,-8.40
2022-12-18T07:57:50.919Z,-8.40
2022-12-18T08:00:19.112Z,-7.90
2022-12-18T08:02:46.089Z,-7.30
2022-12-18T08:05:16.269Z,-6.90
2022-12-18T08:07:43.137Z,-6.60
2022-12-18T08:10:10.329Z,-6.50
2022-12-18T08:12:37.165Z,-5.90
2022-12-18T08:15:04.304Z,-5.50
2022-12-18T08:17:31.815Z,-5.60
2022-12-18T08:19:58.687Z,-5.20
2022-12-18T08:22:25.613Z,-4.90
2022-12-18T08:24:53.316Z,-4.80
2022-12-18T08:27:29.237Z,-4.70
2022-12-18T08:29:57.345Z,-4.40
2022-12-18T08:32:25.307Z,-4.10
2022-12-18T08:34:52.296Z,-4.10
2022-12-18T08:37:19.440Z,-3.80
2022-12-18T08:39:46.586Z,-3.60
2022-12-18T08:42:48.925Z,-3.70
2022-12-18T08:45:15.845Z,-3.50
2022-12-18T08:47:43.312Z,-3.10
2022-12-18T08:50:10.822Z,-3.20
2022-12-18T08:52:37.712Z,-3.20
2022-12-18T08:55:05.276Z,-3.20
2022-12-18T08:57:32.170Z,-2.70
2022-12-18T08:59:59.113Z,-2.50
2022-12-18T09:02:26.063Z,-2.70
2022-12-18T09:04:57.394Z,-2.60
2022-12-18T09:07:24.708Z,-2.50
2022-12-18T09:09:51.624Z,-2.60
2022-12-18T09:12:18.501Z,-2.80
2022-12-18T09:14:45.387Z,-2.80
2022-12-18T09:17:12.328Z,-2.60
2022-12-18T09:19:39.283Z,-2.50
2022-12-18T09:22:06.503Z,-2.50
2022-12-18T09:24:33.454Z,-2.30
2022-12-18T09:27:00.356Z,-1.50
2022-12-18T09:29:27.268Z,-2.10
2022-12-18T09:31:54.135Z,-2.20
2022-12-18T09:34:22.932Z,-2.30
2022-12-18T09:36:50.258Z,-1.50
2022-12-18T09:39:17.438Z,-1.20
2022-12-18T09:41:54.347Z,-1.50
2022-12-18T09:44:31.807Z,-1.40
2022-12-18T09:47:16.149Z,-0.90
2022-12-18T09:49:53.218Z,-0.60
2022-12-18T09:52:31.614Z,-0.80
2022-12-18T09:55:20.748Z,-0.60
2022-12-18T09:57:54.081Z,-0.90
2022-12-18T10:00:24.057Z,-1.10
2022-12-18T10:02:59.733Z,-1.00
2022-12-18T10:05:38.417Z,-0.80
2022-12-18T10:08:17.505Z,-0.40
2022-12-18T10:10:50.875Z,-0.80
2022-12-18T10:13:37.847Z,-0.80
2022-12-18T10:16:23.320Z,0.00
2022-12-18T10:19:11.211Z,-0.10
2022-12-18T10:21:55.319Z,-0.90
2022-12-18T10:24:48.183Z,-0.70
2022-12-18T10:27:25.454Z,-0.70
2022-12-18T10:29:52.481Z,-0.10
2022-12-18T10:32:28.173Z,0.50
2022-12-18T10:35:00.564Z,0.60
2022-12-18T10:37:30.248Z,0.70
2022-12-18T10:40:26.388Z,1.00
2022-12-18T10:43:25.382Z,0.60
2022-12-18T10:46:10.372Z,0.10
2022-12-18T10:48:52.066Z,0.00
2022-12-18T10:51:24.518Z,-0.20
2022-12-18T10:54:22.566Z,-0.20
2022-12-18T10:56:49.636Z,0.20
2022-12-18T10:59:18.548Z,-0.10
2022-12-18T11:01:57.781Z,0.10
2022-12-18T11:04:31.150Z,-0.10
2022-12-18T11:07:05.488Z,0.10
2022-12-18T11:09:37.357Z,0.20
2022-12-18T11:12:24.609Z,0.10
2022-12-18T11:14:59.065Z,0.00
2022-12-18T11:17:36.837Z,0.10
2022-12-18T11:20:08.158Z,0.00
2022-12-18T11:22:37.490Z,0.00
2022-12-18T11:25:32.537Z,0.30
2022-12-18T11:28:03.210Z,-0.10
2022-12-18T11:30:32.710Z,-0.60
2022-12-18T11:33:05.465Z,-1.20
2022-12-18T11:35:54.708Z,-1.70
2022-12-18T11:38:27.192Z,-2.30
2022-12-18T11:40:59.802Z,-2.90
2022-12-18T11:43:39.319Z,-3.10
2022-12-18T11:46:17.631Z,-3.40
2022-12-18T11:49:11.155Z,-2.30
2022-12-18T11:51:56.854Z,-3.60
2022-12-18T11:54:23.850Z,-3.60
2022-12-18T11:57:00.275Z,-3.50
2022-12-18T11:59:27.088Z,-3.50
2022-12-18T12:02:05.095Z,-3.40
2022-12-18T12:04:42.042Z,-3.20
2022-12-18T12:07:40.399Z,-3.20
2022-12-18T12:10:27.728Z,-3.30
2022-12-18T12:13:03.262Z,-3.40
2022-12-18T12:16:07.407Z,-3.50
2022-12-18T12:18:40.415Z,-3.60
2022-12-18T12:21:18.350Z,-3.70
2022-12-18T12:23:58.248Z,-3.70
2022-12-18T12:26:50.334Z,-3.80
2022-12-18T12:29:43.795Z,-3.70
2022-12-18T12:32:13.766Z,-3.70
2022-12-18T12:34:46.680Z,-4.10
2022-12-18T12:37:54.484Z,-3.80
2022-12-18T12:40:51.178Z,-3.70
2022-12-18T12:43:22.680Z,-3.70
2022-12-18T12:45:57.365Z,-3.70
2022-12-18T12:48:42.674Z,-3.80
2022-12-18T12:51:23.800Z,-3.70
2022-12-18T12:53:51.637Z,-3.70
2022-12-18T12:56:22.363Z,-3.70
2022-12-18T12:59:00.908Z,-3.70
2022-12-18T13:01:38.042Z,-3.80
2022-12-18T13:04:28.291Z,-3.80
2022-12-18T13:07:27.975Z,-3.70
2022-12-18T13:10:19.282Z,-3.70
2022-12-18T13:13:05.412Z,-3.70
2022-12-18T13:16:09.321Z,-3.70
2022-12-18T13:18:36.704Z,-3.60
2022-12-18T13:21:18.668Z,-3.60
2022-12-18T13:23:46.239Z,-3.60
2022-12-18T13:26:28.881Z,-3.50
2022-12-18T13:28:57.492Z,-3.60
2022-12-18T13:31:42.633Z,-3.60
2022-12-18T13:34:28.420Z,-3.60
2022-12-18T13:37:00.566Z,-3.60
2022-12-18T13:39:35.894Z,-3.60
2022-12-18T13:42:57.555Z,-3.50
2022-12-18T13:45:39.921Z,-3.50
2022-12-18T13:48:20.437Z,-3.50
2022-12-18T13:50:59.358Z,-3.50
2022-12-18T13:53:31.040Z,-3.50
2022-12-18T13:55:58.451Z,-3.50
2022-12-18T13:58:25.367Z,-3.50
2022-12-18T14:00:52.444Z,-3.60
2022-12-18T14:03:22.232Z,-3.50
2022-12-18T14:06:10.031Z,-3.50
2022-12-18T14:08:44.695Z,-3.50
2022-12-18T14:11:23.347Z,-3.60
2022-12-18T14:13:51.391Z,-3.60
2022-12-18T14:16:18.765Z,-3.60
2022-12-18T14:19:04.081Z,-3.60
2022-12-18T14:21:40.517Z,-3.70
2022-12-18T14:24:10.214Z,-3.70
2022-12-18T14:26:37.103Z,-3.70
2022-12-18T14:29:36.474Z,-3.70
2022-12-18T14:32:20.370Z,-3.50
2022-12-18T14:34:52.283Z,-3.60
2022-12-18T14:37:23.743Z,-3.60
2022-12-18T14:40:08.700Z,-3.60
2022-12-18T14:42:38.272Z,-3.60
2022-12-18T14:45:41.020Z,-3.60
2022-12-18T14:48:22.838Z,-3.50
2022-12-18T14:51:01.015Z,-3.50
2022-12-18T14:53:35.063Z,-3.50
2022-12-18T14:56:03.383Z,-3.50
2022-12-18T14:58:30.620Z,-3.50
2022-12-18T15:01:00.227Z,-3.60
2022-12-18T15:03:27.253Z,-3.50
2022-12-18T15:05:54.163Z,-3.50
2022-12-18T15:08:36.811Z,-3.60
2022-12-18T15:11:08.956Z,-3.50
2022-12-18T15:13:39.020Z,-3.50
2022-12-18T15:16:13.847Z,-3.60
2022-12-18T15:18:44.246Z,-3.50
2022-12-18T15:21:17.443Z,-3.50
2022-12-18T15:23:54.030Z,-3.50
2022-12-18T15:26:23.027Z,-3.40
2022-12-18T15:28:56.992Z,-3.30
2022-12-18T15:31:27.416Z,-3.30
2022-12-18T15:33:54.263Z,-3.20
2022-12-18T15:36:26.301Z,-3.10
2022-12-18T15:38:59.645Z,-3.00
2022-12-18T15:41:39.320Z,-3.00
2022-12-18T15:44:27.348Z,-2.90
2022-12-18T15:46:56.840Z,-2.80
2022-12-18T15:49:23.920Z,-2.80
2022-12-18T15:51:54.728Z,-2.80
2022-12-18T15:54:41.826Z,-2.70
2022-12-18T15:57:25.346Z,-2.70
2022-12-18T15:59:58.958Z,-2.80
2022-12-18T16:02:26.895Z,-2.70
2022-12-18T16:04:55.095Z,-2.70
2022-12-18T16:07:24.624Z,-2.60
2022-12-18T16:09:53.362Z,-2.60
2022-12-18T16:12:25.232Z,-2.60
2022-12-18T16:14:52.185Z,-2.50
2022-12-18T16:17:19.316Z,-2.50
2022-12-18T16:19:46.716Z,-2.40
2022-12-18T16:22:23.092Z,-2.30
2022-12-18T16:24:51.418Z,-2.20
2022-12-18T16:27:18.653Z,-2.20
2022-12-18T16:29:45.979Z,-2.10
2022-12-18T16:32:15.749Z,-2.10
2022-12-18T16:34:44.645Z,-2.10
2022-12-18T16:37:14.066Z,-2.00
2022-12-18T16:39:41.721Z,-2.10
2022-12-18T16:42:19.828Z,-2.10
2022-12-18T16:44:48.253Z,-2.10
2022-12-18T16:47:15.586Z,-2.10
2022-12-18T16:49:43.517Z,-2.00
2022-12-18T16:52:10.472Z,-2.10
2022-12-18T16:54:37.418Z,-2.10
2022-12-18T16:57:07.705Z,-2.10
2022-12-18T16:59:38.867Z,-2.10
2022-12-18T17:02:06.074Z,-2.10
2022-12-18T17:04:33.835Z,-2.10
2022-12-18T17:07:00.754Z,-2.00
2022-12-18T17:09:27.720Z,-2.00
2022-12-18T17:11:55.199Z,-1.90
2022-12-18T17:14:23.903Z,-1.90
2022-12-18T17:17:19.230Z,-1.90
2022-12-18T17:19:38.805Z,-1.90
2022-12-18T17:22:05.752Z,-1.90
2022-12-18T17:24:35.088Z,-1.80
2022-12-18T17:27:03.140Z,-1.80
2022-12-18T17:29:30.402Z,-1.80
2022-12-18T17:31:57.346Z,-1.70
2022-12-18T17:34:26.564Z,-1.80
2022-12-18T17:36:53.410Z,-1.70
2022-12-18T17:39:21.505Z,-1.70
2022-12-18T17:41:49.596Z,-1.60
2022-12-18T17:44:17.278Z,-1.60
2022-12-18T17:46:46.117Z,-1.60
2022-12-18T17:49:14.261Z,-1.60
2022-12-18T17:51:43.205Z,-1.60
2022-12-18T17:54:10.929Z,-1.60
2022-12-18T17:56:38.821Z,-1.50
2022-12-18T17:59:07.120Z,-1.60
2022-12-18T18:01:37.384Z,-1.50
2022-12-18T18:04:08.110Z,-1.50
2022-12-18T18:06:35.143Z,-1.50
2022-12-18T18:09:06.133Z,-1.50
2022-12-18T18:11:55.509Z,-1.50
2022-12-18T18:14:23.206Z,-1.40
2022-12-18T18:16:52.556Z,-1.40
2022-12-18T18:19:22.056Z,-1.30
2022-12-18T18:21:52.141Z,-1.30
2022-12-18T18:24:23.674Z,-1.30
2022-12-18T18:26:50.931Z,-1.30
2022-12-18T18:29:23.623Z,-1.20
2022-12-18T18:31:53.026Z,-1.20
2022-12-18T18:34:24.815Z,-1.20
2022-12-18T18:36:51.987Z,-1.20
2022-12-18T18:39:19.628Z,-1.20
2022-12-18T18:41:47.813Z,-1.10
2022-12-18T18:44:15.860Z,-1.10
2022-12-18T18:46:42.863Z,-1.00
2022-12-18T18:49:10.229Z,-1.00
2022-12-18T18:51:37.129Z,-1.00
2022-12-18T18:54:04.179Z,-0.90
2022-12-18T18:59:18.620Z,-0.70
2022-12-18T19:01:45.685Z,-0.70
2022-12-18T19:04:13.059Z,-0.70
2022-12-18T19:06:40.276Z,-0.60
2022-12-18T19:09:07.665Z,-0.60
2022-12-18T19:11:53.374Z,-0.60
2022-12-18T19:14:23.223Z,-0.60
2022-12-18T19:16:50.313Z,-0.60
2022-12-18T19:19:21.147Z,-0.60
2022-12-18T19:21:48.233Z,-0.50
2022-12-18T19:24:15.297Z,-0.50
2022-12-18T19:26:43.739Z,-0.50
2022-12-18T19:29:12.731Z,-0.50
2022-12-18T19:31:39.624Z,-0.50
2022-12-18T19:34:07.471Z,-0.50
2022-12-18T19:36:36.267Z,-0.50
2022-12-18T19:39:12.516Z,-0.40
2022-12-18T19:41:40.034Z,-0.40
2022-12-18T19:44:08.487Z,-0.40
2022-12-18T19:46:36.154Z,-0.30
2022-12-18T19:49:07.512Z,-0.30
2022-12-18T19:51:34.547Z,-0.40
2022-12-18T19:54:02.051Z,-0.30
2022-12-18T19:56:31.885Z,-0.30
2022-12-18T19:58:59.034Z,-0.30
2022-12-18T20:01:27.419Z,-0.30
2022-12-18T20:03:55.725Z,-0.20
2022-12-18T20:06:31.651Z,-0.20
2022-12-18T20:09:01.577Z,-0.10
2022-12-18T20:11:32.956Z,-0.10
2022-12-18T20:14:03.518Z,0.00
2022-12-18T20:16:30.881Z,0.00
2022-12-18T20:18:58.808Z,0.00
2022-12-18T20:21:26.069Z,-0.10
2022-12-18T20:23:55.723Z,-0.10
2022-12-18T20:26:25.181Z,-0.10
2022-12-18T20:28:52.676Z,-0.20
2022-12-18T20:31:19.680Z,-0.30
2022-12-18T20:33:48.752Z,-0.30
2022-12-18T20:36:25.812Z,-0.30
2022-12-18T20:38:57.099Z,-0.30
2022-12-18T20:41:26.352Z,-0.30
2022-12-18T20:43:58.590Z,-0.30
2022-12-18T20:46:25.514Z,-0.30
2022-12-18T20:48:52.505Z,-0.20
2022-12-18T20:51:20.880Z,-0.20
2022-12-18T20:53:48.463Z,-0.20
2022-12-18T20:56:21.196Z,-0.20
2022-12-18T20:58:54.836Z,-0.20
2022-12-18T21:01:23.466Z,-0.20
2022-12-18T21:03:50.725Z,-0.30
2022-12-18T21:06:19.691Z,-0.20
2022-12-18T21:08:47.254Z,-0.10
2022-12-18T21:11:38.739Z,-0.10
2022-12-18T21:14:23.185Z,-0.10
2022-12-18T21:16:54.208Z,0.00
2022-12-18T21:19:24.607Z,0.00
2022-12-18T21:21:53.670Z,0.00
2022-12-18T21:24:21.257Z,0.00
2022-12-18T21:26:49.374Z,0.10
2022-12-18T21:29:23.333Z,0.10
2022-12-18T21:31:51.071Z,0.10
2022-12-18T21:34:23.725Z,0.10
2022-12-18T21:36:50.600Z,0.10
2022-12-18T21:39:18.230Z,0.20
2022-12-18T21:42:05.242Z,0.20
2022-12-18T21:44:35.741Z,0.20
2022-12-18T21:47:21.638Z,0.20
2022-12-18T21:49:51.260Z,0.10
2022-12-18T21:52:18.277Z,0.20
2022-12-18T21:54:45.123Z,0.20
2022-12-18T21:57:14.333Z,0.10
2022-12-18T21:59:43.431Z,0.20
2022-12-18T22:02:18.991Z,0.20
2022-12-18T22:04:47.002Z,0.20
2022-12-18T22:07:15.829Z,0.20
2022-12-18T22:09:43.050Z,0.20
2022-12-18T22:12:12.579Z,0.20
2022-12-18T22:14:39.435Z,0.30
2022-12-18T22:17:06.311Z,0.30
2022-12-18T22:19:38.143Z,0.30
2022-12-18T22:22:09.660Z,0.30
2022-12-18T22:24:36.588Z,0.30
2022-12-18T22:27:03.496Z,0.30
2022-12-18T22:29:49.650Z,0.40
2022-12-18T22:32:20.392Z,0.40
2022-12-18T22:35:03.102Z,0.40
2022-12-18T22:37:32.978Z,0.40
2022-12-18T22:39:59.805Z,0.40
2022-12-18T22:42:31.354Z,0.40
2022-12-18T22:44:58.318Z,0.40
2022-12-18T22:47:29.424Z,0.40
2022-12-18T22:49:57.136Z,0.60
2022-12-18T22:52:25.056Z,0.40
2022-12-18T22:54:54.710Z,0.30
2022-12-18T22:57:22.968Z,0.30
2022-12-18T22:59:52.563Z,0.30
2022-12-18T23:02:20.027Z,0.30
2022-12-18T23:04:47.827Z,0.20
2022-12-18T23:07:15.501Z,0.20
2022-12-18T23:09:42.538Z,0.20
2022-12-18T23:12:14.468Z,0.10
2022-12-18T23:14:41.446Z,0.10
2022-12-18T23:17:08.302Z,0.10
2022-12-18T23:19:44.059Z,0.00
2022-12-18T23:22:14.105Z,0.10
2022-12-18T23:24:41.002Z,0.00
2022-12-18T23:27:11.433Z,0.00
2022-12-18T23:29:39.452Z,0.00
2022-12-18T23:32:07.009Z,0.00
2022-12-18T23:34:33.896Z,0.00
2022-12-18T23:37:01.252Z,0.00
2022-12-18T23:39:29.980Z,-0.10
2022-12-18T23:42:00.691Z,-0.10
2022-12-18T23:44:27.958Z,-0.10
2022-12-18T23:46:55.210Z,-0.10
2022-12-18T23:49:22.592Z,-0.10
2022-12-18T23:51:49.672Z,-0.10
2022-12-18T23:54:16.574Z,-0.10
2022-12-18T23:56:43.487Z,-0.10
2022-12-18T23:59:10.593Z,-0.10
